sensor_id;sensor_type;location;lat;lon;timestamp;P1;durP1;ratioP1;P2;durP2;ratioP2
7142;SDS011;3613;48.902;9.204;2022-12-17T00:01:55;32.42;;;16.42;;
7142;SDS011;3613;48.902;9.204;2022-12-17T00:04:39;34.72;;;17.92;;
7142;SDS011;3613;48.902;9.204;2022-12-17T00:07:23;36.00;;;18.67;;
7142;SDS011;3613;48.902;9.204;2022-12-17T00:10:08;35.67;;;18.25;;
7142;SDS011;3613;48.902;9.204;2022-12-17T00:12:55;31.05;;;18.38;;
7142;SDS011;3613;48.902;9.204;2022-12-17T00:15:39;34.10;;;17.83;;
7142;SDS011;3613;48.902;9.204;2022-12-17T00:18:23;35.67;;;18.38;;
7142;SDS011;3613;48.902;9.204;2022-12-17T00:21:08;29.52;;;16.45;;
7142;SDS011;3613;48.902;9.204;2022-12-17T00:23:52;33.55;;;16.20;;
7142;SDS011;3613;48.902;9.204;2022-12-17T00:26:37;28.67;;;15.98;;
7142;SDS011;3613;48.902;9.204;2022-12-17T00:29:21;41.53;;;19.77;;
7142;SDS011;3613;48.902;9.204;2022-12-17T00:32:05;38.63;;;18.27;;
7142;SDS011;3613;48.902;9.204;2022-12-17T00:34:49;46.88;;;22.27;;
7142;SDS011;3613;48.902;9.204;2022-12-17T00:37:34;53.08;;;23.00;;
7142;SDS011;3613;48.902;9.204;2022-12-17T00:40:28;50.90;;;21.55;;
7142;SDS011;3613;48.902;9.204;2022-12-17T00:43:13;53.05;;;23.08;;
7142;SDS011;3613;48.902;9.204;2022-12-17T00:46:02;39.92;;;19.38;;
7142;SDS011;3613;48.902;9.204;2022-12-17T00:48:46;43.45;;;20.42;;
7142;SDS011;3613;48.902;9.204;2022-12-17T00:51:30;44.15;;;20.48;;
7142;SDS011;3613;48.902;9.204;2022-12-17T00:54:15;47.72;;;20.40;;
7142;SDS011;3613;48.902;9.204;2022-12-17T00:56:59;45.47;;;21.10;;
7142;SDS011;3613;48.902;9.204;2022-12-17T00:59:43;39.33;;;19.15;;
7142;SDS011;3613;48.902;9.204;2022-12-17T01:02:28;37.22;;;20.80;;
7142;SDS011;3613;48.902;9.204;2022-12-17T01:05:15;35.90;;;19.10;;
7142;SDS011;3613;48.902;9.204;2022-12-17T01:08:09;37.65;;;17.75;;
7142;SDS011;3613;48.902;9.204;2022-12-17T01:11:02;33.63;;;17.35;;
7142;SDS011;3613;48.902;9.204;2022-12-17T01:13:51;36.78;;;18.35;;
7142;SDS011;3613;48.902;9.204;2022-12-17T01:16:35;35.83;;;18.17;;
7142;SDS011;3613;48.902;9.204;2022-12-17T01:19:22;32.22;;;17.70;;
7142;SDS011;3613;48.902;9.204;2022-12-17T01:22:09;29.23;;;16.42;;
7142;SDS011;3613;48.902;9.204;2022-12-17T01:24:53;34.20;;;17.27;;
7142;SDS011;3613;48.902;9.204;2022-12-17T01:27:37;29.45;;;16.60;;
7142;SDS011;3613;48.902;9.204;2022-12-17T01:30:23;30.40;;;16.67;;
7142;SDS011;3613;48.902;9.204;2022-12-17T01:33:08;28.48;;;15.43;;
7142;SDS011;3613;48.902;9.204;2022-12-17T01:35:56;32.45;;;16.88;;
7142;SDS011;3613;48.902;9.204;2022-12-17T01:38:41;32.22;;;16.17;;
7142;SDS011;3613;48.902;9.204;2022-12-17T01:41:26;28.58;;;16.63;;
7142;SDS011;3613;48.902;9.204;2022-12-17T01:47:27;33.88;;;17.20;;
7142;SDS011;3613;48.902;9.204;2022-12-17T01:50:14;31.10;;;16.80;;
7142;SDS011;3613;48.902;9.204;2022-12-17T01:53:00;27.77;;;15.05;;
7142;SDS011;3613;48.902;9.204;2022-12-17T01:55:47;26.50;;;16.25;;
7142;SDS011;3613;48.902;9.204;2022-12-17T01:58:32;32.10;;;16.45;;
7142;SDS011;3613;48.902;9.204;2022-12-17T02:01:18;29.38;;;15.60;;
7142;SDS011;3613;48.902;9.204;2022-12-17T02:04:03;31.00;;;16.13;;
7142;SDS011;3613;48.902;9.204;2022-12-17T02:07:09;27.95;;;15.10;;
7142;SDS011;3613;48.902;9.204;2022-12-17T02:10:37;31.98;;;15.95;;
7142;SDS011;3613;48.902;9.204;2022-12-17T02:13:41;26.95;;;14.90;;
7142;SDS011;3613;48.902;9.204;2022-12-17T02:16:44;28.25;;;15.02;;
7142;SDS011;3613;48.902;9.204;2022-12-17T02:25:50;26.55;;;15.10;;
7142;SDS011;3613;48.902;9.204;2022-12-17T02:28:45;26.05;;;15.68;;
7142;SDS011;3613;48.902;9.204;2022-12-17T02:31:36;25.70;;;15.10;;
7142;SDS011;3613;48.902;9.204;2022-12-17T02:34:28;27.90;;;14.43;;
7142;SDS011;3613;48.902;9.204;2022-12-17T02:37:15;28.38;;;15.32;;
7142;SDS011;3613;48.902;9.204;2022-12-17T02:39:59;29.63;;;15.82;;
7142;SDS011;3613;48.902;9.204;2022-12-17T02:42:43;32.92;;;14.45;;
7142;SDS011;3613;48.902;9.204;2022-12-17T02:45:30;34.58;;;15.50;;
7142;SDS011;3613;48.902;9.204;2022-12-17T02:48:16;29.58;;;15.85;;
7142;SDS011;3613;48.902;9.204;2022-12-17T02:51:04;30.73;;;15.07;;
7142;SDS011;3613;48.902;9.204;2022-12-17T02:53:49;34.22;;;15.13;;
7142;SDS011;3613;48.902;9.204;2022-12-17T02:56:36;31.17;;;14.90;;
7142;SDS011;3613;48.902;9.204;2022-12-17T02:59:20;26.33;;;14.05;;
7142;SDS011;3613;48.902;9.204;2022-12-17T03:02:07;29.02;;;13.82;;
7142;SDS011;3613;48.902;9.204;2022-12-17T03:04:51;27.33;;;14.70;;
7142;SDS011;3613;48.902;9.204;2022-12-17T03:07:35;29.80;;;14.55;;
7142;SDS011;3613;48.902;9.204;2022-12-17T03:10:19;27.65;;;14.40;;
7142;SDS011;3613;48.902;9.204;2022-12-17T03:13:05;28.38;;;15.43;;
7142;SDS011;3613;48.902;9.204;2022-12-17T03:15:50;27.73;;;12.68;;
7142;SDS011;3613;48.902;9.204;2022-12-17T03:18:41;22.83;;;13.52;;
7142;SDS011;3613;48.902;9.204;2022-12-17T03:21:25;27.95;;;13.75;;
7142;SDS011;3613;48.902;9.204;2022-12-17T03:24:10;23.80;;;13.45;;
7142;SDS011;3613;48.902;9.204;2022-12-17T03:26:56;33.80;;;15.77;;
7142;SDS011;3613;48.902;9.204;2022-12-17T03:29:40;27.63;;;14.80;;
7142;SDS011;3613;48.902;9.204;2022-12-17T03:32:24;30.02;;;15.05;;
7142;SDS011;3613;48.902;9.204;2022-12-17T03:35:08;30.88;;;15.75;;
7142;SDS011;3613;48.902;9.204;2022-12-17T03:37:52;33.22;;;15.40;;
7142;SDS011;3613;48.902;9.204;2022-12-17T03:40:39;30.17;;;15.10;;
7142;SDS011;3613;48.902;9.204;2022-12-17T03:43:23;31.65;;;14.63;;
7142;SDS011;3613;48.902;9.204;2022-12-17T03:46:07;30.50;;;16.10;;
7142;SDS011;3613;48.902;9.204;2022-12-17T03:48:51;32.58;;;15.10;;
7142;SDS011;3613;48.902;9.204;2022-12-17T03:51:35;38.58;;;16.17;;
7142;SDS011;3613;48.902;9.204;2022-12-17T03:54:19;31.85;;;16.23;;
7142;SDS011;3613;48.902;9.204;2022-12-17T03:57:03;35.03;;;17.10;;
7142;SDS011;3613;48.902;9.204;2022-12-17T03:59:47;34.35;;;16.15;;
7142;SDS011;3613;48.902;9.204;2022-12-17T04:02:31;36.83;;;17.35;;
7142;SDS011;3613;48.902;9.204;2022-12-17T04:05:15;29.77;;;15.60;;
7142;SDS011;3613;48.902;9.204;2022-12-17T04:07:59;33.30;;;15.63;;
7142;SDS011;3613;48.902;9.204;2022-12-17T04:10:43;29.75;;;16.08;;
7142;SDS011;3613;48.902;9.204;2022-12-17T04:13:27;35.03;;;16.10;;
7142;SDS011;3613;48.902;9.204;2022-12-17T04:16:11;31.40;;;15.93;;
7142;SDS011;3613;48.902;9.204;2022-12-17T04:18:55;34.65;;;17.58;;
7142;SDS011;3613;48.902;9.204;2022-12-17T04:21:39;32.65;;;16.25;;
7142;SDS011;3613;48.902;9.204;2022-12-17T04:24:23;30.38;;;16.73;;
7142;SDS011;3613;48.902;9.204;2022-12-17T04:27:07;32.67;;;15.18;;
7142;SDS011;3613;48.902;9.204;2022-12-17T04:29:51;30.90;;;15.38;;
7142;SDS011;3613;48.902;9.204;2022-12-17T04:32:38;37.50;;;17.63;;
7142;SDS011;3613;48.902;9.204;2022-12-17T04:35:22;31.45;;;15.88;;
7142;SDS011;3613;48.902;9.204;2022-12-17T04:38:08;35.58;;;18.20;;
7142;SDS011;3613;48.902;9.204;2022-12-17T04:40:52;30.85;;;15.82;;
7142;SDS011;3613;48.902;9.204;2022-12-17T04:43:37;28.67;;;15.95;;
7142;SDS011;3613;48.902;9.204;2022-12-17T04:46:28;36.13;;;17.38;;
7142;SDS011;3613;48.902;9.204;2022-12-17T04:49:12;33.00;;;16.65;;
7142;SDS011;3613;48.902;9.204;2022-12-17T04:51:59;40.33;;;17.55;;
7142;SDS011;3613;48.902;9.204;2022-12-17T04:54:43;37.88;;;18.27;;
7142;SDS011;3613;48.902;9.204;2022-12-17T04:57:27;40.13;;;16.73;;
7142;SDS011;3613;48.902;9.204;2022-12-17T05:00:11;34.95;;;17.08;;
7142;SDS011;3613;48.902;9.204;2022-12-17T05:03:15;32.05;;;16.98;;
7142;SDS011;3613;48.902;9.204;2022-12-17T05:06:00;33.33;;;16.67;;
7142;SDS011;3613;48.902;9.204;2022-12-17T05:08:44;32.55;;;16.92;;
7142;SDS011;3613;48.902;9.204;2022-12-17T05:11:31;35.55;;;16.20;;
7142;SDS011;3613;48.902;9.204;2022-12-17T05:14:16;41.75;;;18.90;;
7142;SDS011;3613;48.902;9.204;2022-12-17T05:17:00;45.13;;;17.88;;
7142;SDS011;3613;48.902;9.204;2022-12-17T05:19:44;36.00;;;17.65;;
7142;SDS011;3613;48.902;9.204;2022-12-17T05:22:28;37.15;;;16.85;;
7142;SDS011;3613;48.902;9.204;2022-12-17T05:25:15;39.03;;;17.95;;
7142;SDS011;3613;48.902;9.204;2022-12-17T05:27:59;44.35;;;18.85;;
7142;SDS011;3613;48.902;9.204;2022-12-17T05:30:49;41.42;;;19.02;;
7142;SDS011;3613;48.902;9.204;2022-12-17T05:33:37;46.90;;;18.45;;
7142;SDS011;3613;48.902;9.204;2022-12-17T05:36:21;40.13;;;18.08;;
7142;SDS011;3613;48.902;9.204;2022-12-17T05:39:06;45.15;;;19.55;;
7142;SDS011;3613;48.902;9.204;2022-12-17T05:41:50;50.15;;;19.85;;
7142;SDS011;3613;48.902;9.204;2022-12-17T05:44:34;45.88;;;19.45;;
7142;SDS011;3613;48.902;9.204;2022-12-17T05:47:18;41.53;;;18.40;;
7142;SDS011;3613;48.902;9.204;2022-12-17T05:50:02;50.92;;;19.45;;
7142;SDS011;3613;48.902;9.204;2022-12-17T05:52:51;43.25;;;20.20;;
7142;SDS011;3613;48.902;9.204;2022-12-17T05:55:35;47.80;;;19.92;;
7142;SDS011;3613;48.902;9.204;2022-12-17T05:58:19;39.63;;;19.85;;
7142;SDS011;3613;48.902;9.204;2022-12-17T06:01:04;44.05;;;19.77;;
7142;SDS011;3613;48.902;9.204;2022-12-17T06:03:49;40.35;;;18.20;;
7142;SDS011;3613;48.902;9.204;2022-12-17T06:06:33;53.25;;;21.85;;
7142;SDS011;3613;48.902;9.204;2022-12-17T06:09:17;42.90;;;19.73;;
7142;SDS011;3613;48.902;9.204;2022-12-17T06:12:02;52.92;;;20.85;;
7142;SDS011;3613;48.902;9.204;2022-12-17T06:14:46;51.10;;;20.77;;
7142;SDS011;3613;48.902;9.204;2022-12-17T06:17:30;49.92;;;21.15;;
7142;SDS011;3613;48.902;9.204;2022-12-17T06:20:16;48.08;;;20.35;;
7142;SDS011;3613;48.902;9.204;2022-12-17T06:23:05;44.70;;;20.70;;
7142;SDS011;3613;48.902;9.204;2022-12-17T06:25:52;54.17;;;22.75;;
7142;SDS011;3613;48.902;9.204;2022-12-17T06:28:37;40.55;;;18.50;;
7142;SDS011;3613;48.902;9.204;2022-12-17T06:31:24;49.83;;;21.10;;
7142;SDS011;3613;48.902;9.204;2022-12-17T06:34:08;57.53;;;21.58;;
7142;SDS011;3613;48.902;9.204;2022-12-17T06:36:52;43.83;;;19.40;;
7142;SDS011;3613;48.902;9.204;2022-12-17T06:39:36;56.55;;;21.67;;
7142;SDS011;3613;48.902;9.204;2022-12-17T06:42:20;47.47;;;20.27;;
7142;SDS011;3613;48.902;9.204;2022-12-17T06:45:04;51.40;;;22.27;;
7142;SDS011;3613;48.902;9.204;2022-12-17T06:47:49;38.50;;;19.33;;
7142;SDS011;3613;48.902;9.204;2022-12-17T06:50:33;47.97;;;20.83;;
7142;SDS011;3613;48.902;9.204;2022-12-17T06:53:17;52.00;;;21.48;;
7142;SDS011;3613;48.902;9.204;2022-12-17T06:56:03;44.42;;;19.27;;
7142;SDS011;3613;48.902;9.204;2022-12-17T06:58:47;43.78;;;21.33;;
7142;SDS011;3613;48.902;9.204;2022-12-17T07:01:31;54.03;;;21.13;;
7142;SDS011;3613;48.902;9.204;2022-12-17T07:04:18;45.40;;;21.17;;
7142;SDS011;3613;48.902;9.204;2022-12-17T07:07:02;57.20;;;23.48;;
7142;SDS011;3613;48.902;9.204;2022-12-17T07:09:46;49.00;;;21.95;;
7142;SDS011;3613;48.902;9.204;2022-12-17T07:12:32;49.38;;;23.80;;
7142;SDS011;3613;48.902;9.204;2022-12-17T07:15:16;62.45;;;24.95;;
7142;SDS011;3613;48.902;9.204;2022-12-17T07:18:01;57.42;;;22.30;;
7142;SDS011;3613;48.902;9.204;2022-12-17T07:20:51;53.42;;;24.20;;
7142;SDS011;3613;48.902;9.204;2022-12-17T07:23:36;48.92;;;22.35;;
7142;SDS011;3613;48.902;9.204;2022-12-17T07:26:22;54.92;;;24.25;;
7142;SDS011;3613;48.902;9.204;2022-12-17T07:29:06;50.20;;;22.65;;
7142;SDS011;3613;48.902;9.204;2022-12-17T07:31:50;48.85;;;23.02;;
7142;SDS011;3613;48.902;9.204;2022-12-17T07:34:34;48.38;;;23.75;;
7142;SDS011;3613;48.902;9.204;2022-12-17T07:37:18;42.38;;;17.77;;
7142;SDS011;3613;48.902;9.204;2022-12-17T07:40:02;48.88;;;23.02;;
7142;SDS011;3613;48.902;9.204;2022-12-17T07:42:47;54.15;;;21.83;;
7142;SDS011;3613;48.902;9.204;2022-12-17T07:45:31;53.83;;;24.13;;
7142;SDS011;3613;48.902;9.204;2022-12-17T07:48:15;52.25;;;22.80;;
7142;SDS011;3613;48.902;9.204;2022-12-17T07:50:59;45.65;;;22.60;;
7142;SDS011;3613;48.902;9.204;2022-12-17T07:53:44;54.15;;;23.35;;
7142;SDS011;3613;48.902;9.204;2022-12-17T07:56:28;46.90;;;22.15;;
7142;SDS011;3613;48.902;9.204;2022-12-17T07:59:15;52.03;;;23.00;;
7142;SDS011;3613;48.902;9.204;2022-12-17T08:01:59;50.33;;;23.38;;
7142;SDS011;3613;48.902;9.204;2022-12-17T08:04:51;55.75;;;24.13;;
7142;SDS011;3613;48.902;9.204;2022-12-17T08:07:35;54.10;;;24.85;;
7142;SDS011;3613;48.902;9.204;2022-12-17T08:10:19;54.75;;;24.17;;
7142;SDS011;3613;48.902;9.204;2022-12-17T08:13:04;54.63;;;23.67;;
7142;SDS011;3613;48.902;9.204;2022-12-17T08:15:50;43.22;;;21.58;;
7142;SDS011;3613;48.902;9.204;2022-12-17T08:18:35;56.88;;;24.60;;
7142;SDS011;3613;48.902;9.204;2022-12-17T08:21:20;52.20;;;23.73;;
7142;SDS011;3613;48.902;9.204;2022-12-17T08:24:04;49.45;;;23.77;;
7142;SDS011;3613;48.902;9.204;2022-12-17T08:26:51;49.13;;;23.23;;
7142;SDS011;3613;48.902;9.204;2022-12-17T08:29:35;49.60;;;23.95;;
7142;SDS011;3613;48.902;9.204;2022-12-17T08:32:19;43.15;;;20.27;;
7142;SDS011;3613;48.902;9.204;2022-12-17T08:35:04;52.50;;;22.55;;
7142;SDS011;3613;48.902;9.204;2022-12-17T08:37:51;46.33;;;22.13;;
7142;SDS011;3613;48.902;9.204;2022-12-17T08:40:35;44.17;;;20.65;;
7142;SDS011;3613;48.902;9.204;2022-12-17T08:43:19;48.03;;;21.60;;
7142;SDS011;3613;48.902;9.204;2022-12-17T08:46:03;45.78;;;22.98;;
7142;SDS011;3613;48.902;9.204;2022-12-17T08:48:47;48.10;;;23.33;;
7142;SDS011;3613;48.902;9.204;2022-12-17T08:51:36;47.42;;;21.25;;
7142;SDS011;3613;48.902;9.204;2022-12-17T08:54:23;45.13;;;20.58;;
7142;SDS011;3613;48.902;9.204;2022-12-17T08:57:07;47.45;;;22.95;;
7142;SDS011;3613;48.902;9.204;2022-12-17T09:00:05;43.88;;;20.15;;
7142;SDS011;3613;48.902;9.204;2022-12-17T09:02:54;45.95;;;21.85;;
7142;SDS011;3613;48.902;9.204;2022-12-17T09:05:39;38.13;;;19.13;;
7142;SDS011;3613;48.902;9.204;2022-12-17T09:08:23;48.47;;;21.80;;
7142;SDS011;3613;48.902;9.204;2022-12-17T09:11:07;49.38;;;23.10;;
7142;SDS011;3613;48.902;9.204;2022-12-17T09:13:54;49.15;;;23.23;;
7142;SDS011;3613;48.902;9.204;2022-12-17T09:16:43;50.17;;;21.92;;
7142;SDS011;3613;48.902;9.204;2022-12-17T09:19:27;42.80;;;21.52;;
7142;SDS011;3613;48.902;9.204;2022-12-17T09:22:12;46.20;;;22.25;;
7142;SDS011;3613;48.902;9.204;2022-12-17T09:24:58;44.33;;;22.40;;
7142;SDS011;3613;48.902;9.204;2022-12-17T09:27:42;46.28;;;21.42;;
7142;SDS011;3613;48.902;9.204;2022-12-17T09:30:26;48.83;;;21.65;;
7142;SDS011;3613;48.902;9.204;2022-12-17T09:33:17;53.42;;;23.38;;
7142;SDS011;3613;48.902;9.204;2022-12-17T09:36:01;45.30;;;21.38;;
7142;SDS011;3613;48.902;9.204;2022-12-17T09:38:46;40.72;;;20.10;;
7142;SDS011;3613;48.902;9.204;2022-12-17T09:41:41;48.33;;;22.02;;
7142;SDS011;3613;48.902;9.204;2022-12-17T09:51:09;42.83;;;20.52;;
7142;SDS011;3613;48.902;9.204;2022-12-17T09:54:31;44.22;;;21.58;;
7142;SDS011;3613;48.902;9.204;2022-12-17T09:57:17;45.40;;;22.13;;
7142;SDS011;3613;48.902;9.204;2022-12-17T10:03:07;41.30;;;22.25;;
7142;SDS011;3613;48.902;9.204;2022-12-17T10:05:55;45.50;;;20.50;;
7142;SDS011;3613;48.902;9.204;2022-12-17T10:08:55;44.50;;;20.75;;
7142;SDS011;3613;48.902;9.204;2022-12-17T10:11:42;42.65;;;22.23;;
7142;SDS011;3613;48.902;9.204;2022-12-17T10:14:27;41.15;;;19.38;;
7142;SDS011;3613;48.902;9.204;2022-12-17T10:17:15;46.60;;;21.20;;
7142;SDS011;3613;48.902;9.204;2022-12-17T10:20:12;39.10;;;19.77;;
7142;SDS011;3613;48.902;9.204;2022-12-17T10:23:00;42.53;;;19.25;;
7142;SDS011;3613;48.902;9.204;2022-12-17T10:25:51;40.63;;;20.88;;
7142;SDS011;3613;48.902;9.204;2022-12-17T10:28:37;42.45;;;22.17;;
7142;SDS011;3613;48.902;9.204;2022-12-17T10:31:21;40.30;;;20.67;;
7142;SDS011;3613;48.902;9.204;2022-12-17T10:34:13;42.78;;;20.80;;
7142;SDS011;3613;48.902;9.204;2022-12-17T10:37:00;34.03;;;18.88;;
7142;SDS011;3613;48.902;9.204;2022-12-17T10:39:52;38.97;;;20.70;;
7142;SDS011;3613;48.902;9.204;2022-12-17T10:42:39;46.15;;;21.02;;
7142;SDS011;3613;48.902;9.204;2022-12-17T10:51:01;42.75;;;19.33;;
7142;SDS011;3613;48.902;9.204;2022-12-17T10:53:50;46.53;;;22.33;;
7142;SDS011;3613;48.902;9.204;2022-12-17T10:56:35;42.10;;;21.60;;
7142;SDS011;3613;48.902;9.204;2022-12-17T10:59:35;40.63;;;19.75;;
7142;SDS011;3613;48.902;9.204;2022-12-17T11:02:24;45.10;;;22.02;;
7142;SDS011;3613;48.902;9.204;2022-12-17T11:05:12;40.45;;;20.75;;
7142;SDS011;3613;48.902;9.204;2022-12-17T11:07:59;50.75;;;23.85;;
7142;SDS011;3613;48.902;9.204;2022-12-17T11:10:44;39.85;;;20.15;;
7142;SDS011;3613;48.902;9.204;2022-12-17T11:13:33;43.67;;;22.63;;
7142;SDS011;3613;48.902;9.204;2022-12-17T11:16:22;45.92;;;22.70;;
7142;SDS011;3613;48.902;9.204;2022-12-17T11:22:31;46.60;;;22.55;;
7142;SDS011;3613;48.902;9.204;2022-12-17T11:28:14;46.78;;;22.75;;
7142;SDS011;3613;48.902;9.204;2022-12-17T11:31:08;41.72;;;20.65;;
7142;SDS011;3613;48.902;9.204;2022-12-17T11:37:03;43.10;;;22.20;;
7142;SDS011;3613;48.902;9.204;2022-12-17T11:42:56;43.08;;;21.33;;
7142;SDS011;3613;48.902;9.204;2022-12-17T11:49:21;45.03;;;22.25;;
7142;SDS011;3613;48.902;9.204;2022-12-17T11:52:30;38.85;;;20.75;;
7142;SDS011;3613;48.902;9.204;2022-12-17T11:55:41;40.13;;;20.10;;
7142;SDS011;3613;48.902;9.204;2022-12-17T11:58:45;46.95;;;21.45;;
7142;SDS011;3613;48.902;9.204;2022-12-17T12:04:58;42.45;;;20.65;;
7142;SDS011;3613;48.902;9.204;2022-12-17T12:10:50;34.42;;;16.70;;
7142;SDS011;3613;48.902;9.204;2022-12-17T12:19:42;54.10;;;23.65;;
7142;SDS011;3613;48.902;9.204;2022-12-17T12:25:39;41.28;;;20.98;;
7142;SDS011;3613;48.902;9.204;2022-12-17T12:31:23;42.13;;;22.08;;
7142;SDS011;3613;48.902;9.204;2022-12-17T12:34:13;47.80;;;23.13;;
7142;SDS011;3613;48.902;9.204;2022-12-17T12:37:02;48.38;;;24.10;;
7142;SDS011;3613;48.902;9.204;2022-12-17T12:39:51;43.83;;;22.55;;
7142;SDS011;3613;48.902;9.204;2022-12-17T12:52:01;43.83;;;22.60;;
7142;SDS011;3613;48.902;9.204;2022-12-17T12:57:31;48.13;;;22.63;;
7142;SDS011;3613;48.902;9.204;2022-12-17T13:14:18;49.40;;;23.95;;
7142;SDS011;3613;48.902;9.204;2022-12-17T13:16:50;43.08;;;21.73;;
7142;SDS011;3613;48.902;9.204;2022-12-17T13:24:45;45.72;;;24.13;;
7142;SDS011;3613;48.902;9.204;2022-12-17T13:43:33;45.45;;;24.15;;
7142;SDS011;3613;48.902;9.204;2022-12-17T13:46:17;50.65;;;23.23;;
7142;SDS011;3613;48.902;9.204;2022-12-17T13:48:50;47.28;;;23.77;;
7142;SDS011;3613;48.902;9.204;2022-12-17T13:51:21;55.13;;;31.60;;
7142;SDS011;3613;48.902;9.204;2022-12-17T13:53:51;48.50;;;23.88;;
7142;SDS011;3613;48.902;9.204;2022-12-17T13:56:27;52.78;;;24.88;;
7142;SDS011;3613;48.902;9.204;2022-12-17T13:59:01;53.13;;;24.27;;
7142;SDS011;3613;48.902;9.204;2022-12-17T14:01:28;48.80;;;22.85;;
7142;SDS011;3613;48.902;9.204;2022-12-17T14:03:57;48.45;;;24.27;;
7142;SDS011;3613;48.902;9.204;2022-12-17T14:06:24;47.80;;;20.60;;
7142;SDS011;3613;48.902;9.204;2022-12-17T14:08:58;45.65;;;22.15;;
7142;SDS011;3613;48.902;9.204;2022-12-17T14:11:25;57.83;;;23.02;;
7142;SDS011;3613;48.902;9.204;2022-12-17T14:14:12;48.95;;;23.48;;
7142;SDS011;3613;48.902;9.204;2022-12-17T14:16:53;50.65;;;23.30;;
7142;SDS011;3613;48.902;9.204;2022-12-17T14:19:19;43.53;;;23.03;;
7142;SDS011;3613;48.902;9.204;2022-12-17T14:21:45;46.80;;;22.77;;
7142;SDS011;3613;48.902;9.204;2022-12-17T14:24:19;51.90;;;22.88;;
7142;SDS011;3613;48.902;9.204;2022-12-17T14:26:51;47.40;;;23.27;;
7142;SDS011;3613;48.902;9.204;2022-12-17T14:29:25;53.28;;;25.20;;
7142;SDS011;3613;48.902;9.204;2022-12-17T14:31:56;48.92;;;23.60;;
7142;SDS011;3613;48.902;9.204;2022-12-17T14:34:27;48.22;;;22.27;;
7142;SDS011;3613;48.902;9.204;2022-12-17T14:36:57;49.17;;;24.40;;
7142;SDS011;3613;48.902;9.204;2022-12-17T14:41:57;50.47;;;24.20;;
7142;SDS011;3613;48.902;9.204;2022-12-17T14:47:32;48.60;;;24.10;;
7142;SDS011;3613;48.902;9.204;2022-12-17T14:52:43;53.38;;;25.27;;
7142;SDS011;3613;48.902;9.204;2022-12-17T14:57:49;48.53;;;23.33;;
7142;SDS011;3613;48.902;9.204;2022-12-17T15:00:16;48.80;;;23.83;;
7142;SDS011;3613;48.902;9.204;2022-12-17T15:02:49;47.17;;;22.58;;
7142;SDS011;3613;48.902;9.204;2022-12-17T15:05:16;43.08;;;22.48;;
7142;SDS011;3613;48.902;9.204;2022-12-17T15:07:42;45.83;;;22.50;;
7142;SDS011;3613;48.902;9.204;2022-12-17T15:10:11;52.23;;;24.97;;
7142;SDS011;3613;48.902;9.204;2022-12-17T15:12:39;53.55;;;22.55;;
7142;SDS011;3613;48.902;9.204;2022-12-17T15:15:06;48.35;;;24.98;;
7142;SDS011;3613;48.902;9.204;2022-12-17T15:17:45;54.85;;;27.23;;
7142;SDS011;3613;48.902;9.204;2022-12-17T15:20:14;48.27;;;25.40;;
7142;SDS011;3613;48.902;9.204;2022-12-17T15:22:44;57.97;;;24.70;;
7142;SDS011;3613;48.902;9.204;2022-12-17T15:25:13;58.05;;;24.77;;
7142;SDS011;3613;48.902;9.204;2022-12-17T15:27:40;56.45;;;24.95;;
7142;SDS011;3613;48.902;9.204;2022-12-17T15:30:12;58.50;;;25.35;;
7142;SDS011;3613;48.902;9.204;2022-12-17T15:32:41;55.38;;;26.25;;
7142;SDS011;3613;48.902;9.204;2022-12-17T15:35:11;49.65;;;24.48;;
7142;SDS011;3613;48.902;9.204;2022-12-17T15:37:40;52.25;;;24.48;;
7142;SDS011;3613;48.902;9.204;2022-12-17T15:40:08;60.33;;;25.35;;
7142;SDS011;3613;48.902;9.204;2022-12-17T15:42:35;53.60;;;24.67;;
7142;SDS011;3613;48.902;9.204;2022-12-17T15:45:20;52.00;;;25.10;;
7142;SDS011;3613;48.902;9.204;2022-12-17T15:47:45;58.80;;;24.80;;
7142;SDS011;3613;48.902;9.204;2022-12-17T15:50:13;55.92;;;25.75;;
7142;SDS011;3613;48.902;9.204;2022-12-17T15:52:39;55.10;;;24.57;;
7142;SDS011;3613;48.902;9.204;2022-12-17T15:55:04;56.87;;;25.60;;
7142;SDS011;3613;48.902;9.204;2022-12-17T15:57:32;48.60;;;24.70;;
7142;SDS011;3613;48.902;9.204;2022-12-17T15:59:58;53.45;;;26.35;;
7142;SDS011;3613;48.902;9.204;2022-12-17T16:02:26;52.80;;;24.00;;
7142;SDS011;3613;48.902;9.204;2022-12-17T16:04:51;55.97;;;25.10;;
7142;SDS011;3613;48.902;9.204;2022-12-17T16:07:17;53.37;;;26.37;;
7142;SDS011;3613;48.902;9.204;2022-12-17T16:09:45;56.42;;;25.02;;
7142;SDS011;3613;48.902;9.204;2022-12-17T16:12:11;54.33;;;25.67;;
7142;SDS011;3613;48.902;9.204;2022-12-17T16:14:39;53.25;;;24.75;;
7142;SDS011;3613;48.902;9.204;2022-12-17T16:17:06;57.38;;;27.27;;
7142;SDS011;3613;48.902;9.204;2022-12-17T16:19:32;62.27;;;27.53;;
7142;SDS011;3613;48.902;9.204;2022-12-17T16:21:58;67.83;;;26.93;;
7142;SDS011;3613;48.902;9.204;2022-12-17T16:24:25;61.25;;;27.88;;
7142;SDS011;3613;48.902;9.204;2022-12-17T16:26:51;62.27;;;26.97;;
7142;SDS011;3613;48.902;9.204;2022-12-17T16:29:17;58.17;;;27.60;;
7142;SDS011;3613;48.902;9.204;2022-12-17T16:31:42;55.83;;;27.27;;
7142;SDS011;3613;48.902;9.204;2022-12-17T16:34:11;62.07;;;27.37;;
7142;SDS011;3613;48.902;9.204;2022-12-17T16:36:37;79.55;;;32.70;;
7142;SDS011;3613;48.902;9.204;2022-12-17T16:39:05;74.78;;;32.85;;
7142;SDS011;3613;48.902;9.204;2022-12-17T16:41:31;65.50;;;30.70;;
7142;SDS011;3613;48.902;9.204;2022-12-17T16:43:58;58.05;;;27.58;;
7142;SDS011;3613;48.902;9.204;2022-12-17T16:48:57;59.75;;;28.45;;
7142;SDS011;3613;48.902;9.204;2022-12-17T16:51:28;62.05;;;26.95;;
7142;SDS011;3613;48.902;9.204;2022-12-17T16:53:56;63.10;;;27.60;;
7142;SDS011;3613;48.902;9.204;2022-12-17T16:56:23;61.75;;;27.48;;
7142;SDS011;3613;48.902;9.204;2022-12-17T16:58:51;61.42;;;27.02;;
7142;SDS011;3613;48.902;9.204;2022-12-17T17:01:18;68.85;;;28.00;;
7142;SDS011;3613;48.902;9.204;2022-12-17T17:03:48;66.85;;;27.85;;
7142;SDS011;3613;48.902;9.204;2022-12-17T17:06:14;64.97;;;28.00;;
7142;SDS011;3613;48.902;9.204;2022-12-17T17:08:41;62.38;;;28.75;;
7142;SDS011;3613;48.902;9.204;2022-12-17T17:13:46;58.22;;;27.75;;
7142;SDS011;3613;48.902;9.204;2022-12-17T17:16:13;57.47;;;26.35;;
7142;SDS011;3613;48.902;9.204;2022-12-17T17:18:39;63.70;;;28.85;;
7142;SDS011;3613;48.902;9.204;2022-12-17T17:23:40;62.05;;;27.67;;
7142;SDS011;3613;48.902;9.204;2022-12-17T17:26:06;66.35;;;27.80;;
7142;SDS011;3613;48.902;9.204;2022-12-17T17:28:32;55.60;;;26.60;;
7142;SDS011;3613;48.902;9.204;2022-12-17T17:30:58;66.80;;;26.50;;
7142;SDS011;3613;48.902;9.204;2022-12-17T17:33:27;67.28;;;26.15;;
7142;SDS011;3613;48.902;9.204;2022-12-17T17:36:04;62.85;;;26.70;;
7142;SDS011;3613;48.902;9.204;2022-12-17T17:38:35;60.13;;;26.60;;
7142;SDS011;3613;48.902;9.204;2022-12-17T17:41:06;69.95;;;27.80;;
7142;SDS011;3613;48.902;9.204;2022-12-17T17:43:34;68.75;;;26.60;;
7142;SDS011;3613;48.902;9.204;2022-12-17T17:46:03;68.00;;;27.02;;
7142;SDS011;3613;48.902;9.204;2022-12-17T17:48:33;64.38;;;28.23;;
7142;SDS011;3613;48.902;9.204;2022-12-17T17:51:05;66.20;;;26.55;;
7142;SDS011;3613;48.902;9.204;2022-12-17T17:53:35;68.53;;;27.98;;
7142;SDS011;3613;48.902;9.204;2022-12-17T17:56:02;84.55;;;36.10;;
7142;SDS011;3613;48.902;9.204;2022-12-17T17:58:29;80.22;;;33.13;;
7142;SDS011;3613;48.902;9.204;2022-12-17T18:00:55;74.80;;;31.83;;
7142;SDS011;3613;48.902;9.204;2022-12-17T18:03:20;65.97;;;30.13;;
7142;SDS011;3613;48.902;9.204;2022-12-17T18:05:46;63.80;;;30.17;;
7142;SDS011;3613;48.902;9.204;2022-12-17T18:08:11;65.53;;;29.50;;
7142;SDS011;3613;48.902;9.204;2022-12-17T18:10:37;67.13;;;27.80;;
7142;SDS011;3613;48.902;9.204;2022-12-17T18:13:07;65.43;;;27.25;;
7142;SDS011;3613;48.902;9.204;2022-12-17T18:15:54;60.53;;;28.20;;
7142;SDS011;3613;48.902;9.204;2022-12-17T18:18:24;62.22;;;27.13;;
7142;SDS011;3613;48.902;9.204;2022-12-17T18:21:00;59.80;;;27.00;;